Time;durP1;ratioP1;P1;durP2;ratioP2;P2;SDS_P1;SDS_P2;PMS_P1;PMS_P2;Temp;Humidity;BMP_temperature;BMP_pressure;BME280_temperature;BME280_humidity;BME280_pressure;Samples;Min_cycle;Max_cycle;Signal;HPM_P1;HPM_P2
2023/03/23 00:01:19;;;;;;;37.20;29.60;;;;;;;6.99;100.00;98452.08;109604;1250;59858;-77
2023/03/23 00:03:48;;;;;;;38.30;29.30;;;;;;;6.95;100.00;98449.70;109632;1250;66763;-77
2023/03/23 00:06:18;;;;;;;39.50;29.60;;;;;;;6.90;100.00;98444.17;109628;1250;61114;-77
2023/03/23 00:08:47;;;;;;;37.80;30.90;;;;;;;6.86;100.00;98449.74;109601;1250;63666;-76
2023/03/23 00:11:18;;;;;;;39.90;31.40;;;;;;;6.84;100.00;98452.83;109547;1250;59771;-77
2023/03/23 00:13:46;;;;;;;37.80;30.70;;;;;;;6.82;100.00;98450.45;109649;1250;59816;-77
2023/03/23 00:16:17;;;;;;;39.40;30.70;;;;;;;6.79;100.00;98448.02;109626;1250;66573;-77
2023/03/23 00:18:52;;;;;;;37.30;29.30;;;;;;;6.73;100.00;98447.98;109462;1250;60445;-77
2023/03/23 00:21:20;;;;;;;36.90;29.40;;;;;;;6.68;100.00;98451.48;109609;1250;62440;-77
2023/03/23 00:23:47;;;;;;;42.60;29.20;;;;;;;6.63;100.00;98452.30;109599;1250;60615;-77
2023/03/23 00:26:14;;;;;;;36.60;29.40;;;;;;;6.55;100.00;98451.52;109625;1250;59733;-76
2023/03/23 00:28:40;;;;;;;45.70;34.70;;;;;;;6.48;100.00;98453.55;109669;1250;67811;-77
2023/03/23 00:31:09;;;;;;;48.30;38.50;;;;;;;6.45;100.00;98453.56;109666;1250;61513;-77
2023/03/23 00:33:40;;;;;;;48.30;39.10;;;;;;;6.44;100.00;98452.91;109677;1250;65168;-77
2023/03/23 00:36:09;;;;;;;52.30;40.80;;;;;;;6.43;100.00;98453.19;109613;1250;59836;-77
2023/03/23 00:38:37;;;;;;;58.30;44.20;;;;;;;6.41;100.00;98451.69;109658;1250;60593;-77
2023/03/23 00:41:05;;;;;;;57.90;45.10;;;;;;;6.39;100.00;98453.59;109366;1250;66541;-77
2023/03/23 00:43:35;;;;;;;56.00;45.60;;;;;;;6.37;100.00;98455.61;109639;1250;60781;-77
2023/03/23 00:46:08;;;;;;;78.10;60.20;;;;;;;6.36;100.00;98455.86;109619;1250;65073;-77
2023/03/23 00:48:40;;;;;;;78.50;66.00;;;;;;;6.33;100.00;98459.73;109461;1250;59891;-77
2023/03/23 00:51:10;;;;;;;91.30;78.70;;;;;;;6.32;100.00;98456.99;109452;1250;59897;-78
2023/03/23 00:53:39;;;;;;;109.90;88.30;;;;;;;6.31;100.00;98460.73;109637;1250;67577;-77
2023/03/23 00:56:07;;;;;;;124.90;101.30;;;;;;;6.29;100.00;98462.45;109705;1250;59922;-78
2023/03/23 00:58:34;;;;;;;136.40;114.40;;;;;;;6.26;100.00;98460.15;109600;1250;64151;-77
2023/03/23 01:01:02;;;;;;;142.60;115.80;;;;;;;6.23;100.00;98460.01;109605;1250;59793;-78
2023/03/23 01:03:29;;;;;;;139.00;117.40;;;;;;;6.17;100.00;98456.77;109636;1250;59898;-77
2023/03/23 01:05:56;;;;;;;146.70;117.50;;;;;;;6.13;100.00;98457.90;109590;1250;67941;-77
2023/03/23 01:08:24;;;;;;;144.00;116.70;;;;;;;6.09;100.00;98460.93;109671;1250;61084;-77
2023/03/23 01:10:51;;;;;;;138.90;116.30;;;;;;;6.07;100.00;98463.04;109680;1250;64732;-78
2023/03/23 01:13:17;;;;;;;141.10;110.00;;;;;;;6.05;100.00;98459.23;109561;1250;59728;-78
2023/03/23 01:15:45;;;;;;;135.90;109.60;;;;;;;6.04;100.00;98461.24;109665;1250;59825;-78
2023/03/23 01:18:12;;;;;;;130.60;107.30;;;;;;;6.04;100.00;98465.50;109546;1250;66615;-78
2023/03/23 01:20:39;;;;;;;137.90;109.50;;;;;;;6.02;100.00;98469.10;109686;1250;59863;-77
2023/03/23 01:23:06;;;;;;;135.60;108.10;;;;;;;5.98;100.00;98470.04;109612;1250;65278;-77
2023/03/23 01:25:36;;;;;;;145.80;115.80;;;;;;;5.92;100.00;98468.77;109619;1250;59746;-77
2023/03/23 01:28:03;;;;;;;152.40;115.00;;;;;;;5.89;100.00;98468.59;109592;1250;59695;-78
2023/03/23 01:30:30;;;;;;;187.30;132.00;;;;;;;5.87;100.00;98467.63;109647;1250;67447;-77
2023/03/23 01:32:56;;;;;;;199.60;134.60;;;;;;;5.85;100.00;98468.42;109679;1250;60758;-77
2023/03/23 01:35:30;;;;;;;183.60;128.20;;;;;;;5.83;100.00;98467.83;109658;1250;65052;-77
2023/03/23 01:37:57;;;;;;;181.80;128.80;;;;;;;5.79;100.00;98467.73;109667;1250;59675;-77
2023/03/23 01:40:27;;;;;;;153.10;114.40;;;;;;;5.76;100.00;98468.80;109306;1250;59904;-78
2023/03/23 01:42:53;;;;;;;147.60;110.80;;;;;;;5.71;100.00;98470.11;109673;1250;67529;-77
2023/03/23 01:45:20;;;;;;;136.20;106.90;;;;;;;5.63;100.00;98473.02;109282;1250;59987;-77
2023/03/23 01:48:07;;;;;;;123.10;97.40;;;;;;;5.56;100.00;98468.48;109666;1250;63973;-77
2023/03/23 01:50:40;;;;;;;107.20;87.50;;;;;;;5.47;100.00;98465.77;109627;1250;59749;-78
2023/03/23 01:53:10;;;;;;;105.60;83.90;;;;;;;5.41;100.00;98463.61;109406;1250;59825;-78
2023/03/23 01:55:39;;;;;;;103.40;83.00;;;;;;;5.34;100.00;98462.08;109667;1250;67827;-77
2023/03/23 01:58:07;;;;;;;113.00;90.00;;;;;;;5.27;100.00;98460.52;109685;1250;61097;-78
2023/03/23 02:00:34;;;;;;;111.40;91.00;;;;;;;5.23;100.00;98459.14;109654;1250;64803;-77
2023/03/23 02:03:01;;;;;;;111.40;85.90;;;;;;;5.24;100.00;98454.20;109646;1250;59810;-77
2023/03/23 02:05:33;;;;;;;103.30;84.50;;;;;;;5.23;100.00;98449.98;109677;1250;59824;-77
2023/03/23 02:08:03;;;;;;;109.70;86.40;;;;;;;5.24;100.00;98452.74;109636;1250;67927;-78
2023/03/23 02:10:32;;;;;;;113.10;92.50;;;;;;;5.28;100.00;98452.39;109697;1250;60883;-77
2023/03/23 02:13:01;;;;;;;109.70;92.30;;;;;;;5.32;100.00;98454.83;109666;1250;65096;-78
2023/03/23 02:15:37;;;;;;;108.00;87.30;;;;;;;5.35;100.00;98456.95;109699;1250;59819;-78
2023/03/23 02:18:03;;;;;;;113.50;89.10;;;;;;;5.39;100.00;98454.63;109636;1250;59709;-78
2023/03/23 02:20:53;;;;;;;110.00;93.10;;;;;;;5.42;100.00;98456.01;109642;1250;65201;-77
2023/03/23 02:23:39;;;;;;;111.50;92.70;;;;;;;5.48;100.00;98449.89;109699;1250;60787;-78
2023/03/23 02:26:30;;;;;;;115.90;92.70;;;;;;;5.53;100.00;98449.78;109694;1250;63753;-78
2023/03/23 02:29:08;;;;;;;116.30;95.40;;;;;;;5.57;100.00;98450.25;109663;1250;59856;-78
2023/03/23 02:31:53;;;;;;;118.20;92.20;;;;;;;5.61;100.00;98444.76;109666;1250;59683;-77
2023/03/23 02:34:28;;;;;;;112.00;91.10;;;;;;;5.64;100.00;98446.89;109617;1250;67842;-77
2023/03/23 02:37:03;;;;;;;105.80;81.60;;;;;;;5.66;100.00;98443.77;109681;1250;60835;-78
2023/03/23 02:39:37;;;;;;;97.90;80.00;;;;;;;5.66;100.00;98442.90;109616;1250;64742;-78
2023/03/23 02:42:10;;;;;;;99.50;81.30;;;;;;;5.64;100.00;98440.52;109668;1250;59866;-78
2023/03/23 02:44:42;;;;;;;98.30;80.50;;;;;;;5.62;100.00;98438.32;109587;1250;59710;-77
2023/03/23 02:47:15;;;;;;;105.60;84.80;;;;;;;5.60;100.00;98437.61;109386;1250;65266;-78
2023/03/23 02:49:53;;;;;;;99.10;80.80;;;;;;;5.57;100.00;98434.79;109660;1250;60925;-78
2023/03/23 02:52:25;;;;;;;91.90;75.70;;;;;;;5.55;100.00;98428.34;109746;1250;64760;-77
2023/03/23 02:54:54;;;;;;;92.70;75.90;;;;;;;5.54;100.00;98422.61;109392;1250;59957;-78
2023/03/23 02:57:24;;;;;;;87.70;73.80;;;;;;;5.50;100.00;98419.83;109739;1250;60013;-77
2023/03/23 02:59:51;;;;;;;88.60;75.10;;;;;;;5.46;100.00;98419.67;109526;1250;66599;-77
2023/03/23 03:02:23;;;;;;;81.70;71.40;;;;;;;5.44;100.00;98415.34;109719;1250;60206;-77
2023/03/23 03:05:22;;;;;;;84.00;69.40;;;;;;;5.46;100.00;98413.86;109672;1250;65161;-77
2023/03/23 03:08:13;;;;;;;82.40;66.00;;;;;;;5.48;100.00;98415.52;108933;1258;59853;-78
2023/03/23 03:10:50;;;;;;;91.10;74.40;;;;;;;5.47;100.00;98417.50;109021;1262;60056;-77
2023/03/23 03:13:28;;;;;;;88.60;74.40;;;;;;;5.47;100.00;98416.99;109017;1258;67254;-77
2023/03/23 03:16:19;;;;;;;95.90;78.60;;;;;;;5.48;100.00;98413.95;109045;1258;61127;-78
2023/03/23 03:18:55;;;;;;;98.70;81.60;;;;;;;5.49;100.00;98410.36;109043;1257;64958;-77
2023/03/23 03:21:27;;;;;;;93.50;78.80;;;;;;;5.50;100.00;98413.30;108997;1259;59903;-77
2023/03/23 03:23:58;;;;;;;89.50;74.20;;;;;;;5.51;100.00;98412.73;109015;1259;59853;-77
2023/03/23 03:26:26;;;;;;;92.60;76.40;;;;;;;5.51;100.00;98408.83;109012;1259;67949;-77
2023/03/23 03:28:54;;;;;;;90.70;75.10;;;;;;;5.54;100.00;98402.16;109012;1258;61011;-77
2023/03/23 03:31:29;;;;;;;85.20;72.90;;;;;;;5.57;100.00;98403.05;108992;1257;64781;-77
2023/03/23 03:33:56;;;;;;;85.70;71.60;;;;;;;5.60;100.00;98403.39;108981;1258;59936;-77
2023/03/23 03:36:34;;;;;;;80.70;70.50;;;;;;;5.64;100.00;98404.25;109009;1259;60014;-78
2023/03/23 03:39:07;;;;;;;87.30;71.70;;;;;;;5.69;100.00;98398.31;109006;1260;67787;-77
2023/03/23 03:41:35;;;;;;;89.30;74.70;;;;;;;5.74;100.00;98399.42;109014;1258;60453;-77
2023/03/23 03:44:06;;;;;;;82.90;71.40;;;;;;;5.79;100.00;98399.67;109101;1251;64857;-77
2023/03/23 03:46:35;;;;;;;77.30;66.90;;;;;;;5.82;100.00;98399.34;109689;1250;59773;-77
2023/03/23 03:49:04;;;;;;;79.30;67.30;;;;;;;5.83;100.00;98404.40;109370;1254;59751;-77
2023/03/23 03:51:32;;;;;;;87.00;72.40;;;;;;;5.82;100.00;98404.45;109353;1254;65371;-78
2023/03/23 03:53:58;;;;;;;90.30;75.70;;;;;;;5.78;100.00;98409.83;109330;1253;61102;-77
2023/03/23 03:56:26;;;;;;;89.50;74.00;;;;;;;5.76;100.00;98410.27;109321;1254;63718;-76
2023/03/23 03:58:53;;;;;;;91.00;74.80;;;;;;;5.75;100.00;98410.83;109319;1253;59984;-76
2023/03/23 04:01:24;;;;;;;88.60;75.40;;;;;;;5.75;100.00;98417.36;109429;1254;59877;-76
2023/03/23 04:03:51;;;;;;;86.10;70.90;;;;;;;5.74;100.00;98406.31;109062;1254;68126;-76
2023/03/23 04:06:18;;;;;;;82.90;68.30;;;;;;;5.72;100.00;98399.55;109368;1254;59916;-76
2023/03/23 04:08:45;;;;;;;78.00;68.20;;;;;;;5.70;100.00;98395.27;109370;1254;64862;-76
2023/03/23 04:11:14;;;;;;;73.80;64.40;;;;;;;5.68;100.00;98388.69;109367;1254;59795;-76
2023/03/23 04:13:41;;;;;;;78.50;66.80;;;;;;;5.66;100.00;98395.13;109386;1254;59829;-76
2023/03/23 04:16:08;;;;;;;78.70;67.40;;;;;;;5.62;100.00;98407.50;109363;1254;67895;-76
2023/03/23 04:18:35;;;;;;;80.00;69.30;;;;;;;5.58;100.00;98414.98;109366;1254;59944;-76
2023/03/23 04:21:03;;;;;;;80.80;69.70;;;;;;;5.55;100.00;98413.56;109599;1250;65284;-77
2023/03/23 04:23:33;;;;;;;83.60;69.90;;;;;;;5.54;100.00;98411.33;109436;1250;59788;-77
2023/03/23 04:26:00;;;;;;;85.00;70.90;;;;;;;5.55;100.00;98409.14;109623;1250;59762;-77
2023/03/23 04:28:27;;;;;;;87.00;73.40;;;;;;;5.57;100.00;98412.23;109638;1250;67491;-77
2023/03/23 04:30:54;;;;;;;78.50;69.20;;;;;;;5.57;100.00;98415.55;109676;1250;59764;-77
2023/03/23 04:33:24;;;;;;;80.80;70.60;;;;;;;5.58;100.00;98414.98;109656;1250;65176;-76
2023/03/23 04:36:15;;;;;;;82.20;70.90;;;;;;;5.60;100.00;98409.42;109220;1250;59851;-77
2023/03/23 04:38:42;;;;;;;82.90;68.50;;;;;;;5.62;100.00;98406.95;109023;1257;59876;-77
2023/03/23 04:41:09;;;;;;;78.10;65.90;;;;;;;5.64;100.00;98402.31;109043;1257;66438;-77
2023/03/23 04:43:41;;;;;;;78.70;69.70;;;;;;;5.63;100.00;98402.85;109024;1257;60727;-77
2023/03/23 04:46:08;;;;;;;81.70;68.70;;;;;;;5.63;100.00;98402.16;109015;1257;65149;-77
2023/03/23 04:48:35;;;;;;;76.60;65.30;;;;;;;5.63;100.00;98400.07;109017;1257;60253;-76
2023/03/23 04:51:03;;;;;;;71.90;61.60;;;;;;;5.62;100.00;98401.89;108999;1258;59937;-77
2023/03/23 04:53:31;;;;;;;78.90;62.60;;;;;;;5.61;100.00;98401.39;108981;1257;68006;-76
2023/03/23 04:55:58;;;;;;;78.10;66.50;;;;;;;5.60;100.00;98400.74;108966;1257;59961;-77
2023/03/23 04:58:24;;;;;;;76.20;65.60;;;;;;;5.60;100.00;98400.61;108987;1258;63757;-77
2023/03/23 05:00:51;;;;;;;73.30;64.10;;;;;;;5.61;100.00;98396.49;108956;1257;59855;-77
2023/03/23 05:03:19;;;;;;;71.00;63.20;;;;;;;5.62;100.00;98391.46;109014;1257;60063;-77
2023/03/23 05:05:51;;;;;;;74.20;62.80;;;;;;;5.63;100.00;98384.02;109003;1259;66861;-77
2023/03/23 05:08:24;;;;;;;73.70;62.40;;;;;;;5.64;100.00;98387.30;108998;1258;60114;-77
2023/03/23 05:10:56;;;;;;;73.90;63.90;;;;;;;5.68;100.00;98390.25;109588;1250;64101;-77
2023/03/23 05:13:23;;;;;;;79.70;66.60;;;;;;;5.75;100.00;98388.48;109650;1250;59830;-77
2023/03/23 05:15:50;;;;;;;79.50;66.00;;;;;;;5.83;100.00;98391.71;109655;1250;59863;-77
2023/03/23 05:18:17;;;;;;;74.00;64.40;;;;;;;5.95;100.00;98391.73;109711;1250;67471;-77
2023/03/23 05:20:46;;;;;;;78.60;65.00;;;;;;;6.08;100.00;98396.43;109708;1250;60056;-77
2023/03/23 05:23:13;;;;;;;77.80;65.30;;;;;;;6.20;100.00;98398.08;109368;1250;64080;-77
2023/03/23 05:25:40;;;;;;;82.00;66.30;;;;;;;6.34;100.00;98400.04;109646;1250;59776;-77
2023/03/23 05:28:08;;;;;;;75.20;64.50;;;;;;;6.52;100.00;98395.63;109615;1255;59776;-77
2023/03/23 05:30:35;;;;;;;69.60;61.60;;;;;;;6.68;100.00;98393.58;109667;1251;67958;-76
2023/03/23 05:33:02;;;;;;;65.70;58.30;;;;;;;6.84;100.00;98397.55;109651;1250;60716;-77
2023/03/23 05:35:29;;;;;;;70.10;58.70;;;;;;;6.96;100.00;98397.90;109646;1250;64766;-77
2023/03/23 05:37:59;;;;;;;63.80;56.40;;;;;;;7.10;100.00;98397.39;109612;1251;59772;-77
2023/03/23 05:40:27;;;;;;;61.00;54.40;;;;;;;7.26;100.00;98396.02;109640;1250;60071;-77
2023/03/23 05:42:55;;;;;;;62.20;55.20;;;;;;;7.38;100.00;98400.91;109680;1250;67873;-77
2023/03/23 05:45:22;;;;;;;65.00;57.30;;;;;;;7.56;100.00;98401.89;109645;1250;61465;-77
2023/03/23 05:47:49;;;;;;;65.50;57.40;;;;;;;7.72;100.00;98403.52;109674;1251;63756;-77
2023/03/23 05:50:17;;;;;;;66.20;58.50;;;;;;;7.90;100.00;98409.44;109617;1251;59737;-77
2023/03/23 05:52:44;;;;;;;65.50;58.30;;;;;;;8.12;100.00;98412.02;109667;1250;59766;-77
2023/03/23 05:55:11;;;;;;;62.90;54.90;;;;;;;8.36;100.00;98411.69;109598;1250;67903;-77
2023/03/23 05:57:37;;;;;;;60.50;53.80;;;;;;;8.58;100.00;98407.70;109668;1250;61010;-77
2023/03/23 06:00:18;;;;;;;60.70;53.50;;;;;;;8.79;100.00;98400.27;109609;1251;63717;-78
2023/03/23 06:02:50;;;;;;;61.30;54.70;;;;;;;8.98;100.00;98391.87;109136;1251;59812;-77
2023/03/23 06:05:17;;;;;;;63.00;56.20;;;;;;;9.14;100.00;98385.21;109631;1251;59833;-78
2023/03/23 06:07:44;;;;;;;64.20;57.30;;;;;;;9.30;100.00;98386.59;109435;1251;67176;-76
2023/03/23 06:10:10;;;;;;;57.70;51.40;;;;;;;9.42;100.00;98391.73;109634;1251;60798;-76
2023/03/23 06:12:39;;;;;;;64.80;57.80;;;;;;;9.50;100.00;98395.27;109644;1251;62453;-76
2023/03/23 06:15:08;;;;;;;65.60;58.80;;;;;;;9.63;100.00;98389.70;109652;1250;59762;-76
2023/03/23 06:17:36;;;;;;;65.10;58.20;;;;;;;9.85;100.00;98388.77;109326;1250;59885;-77
2023/03/23 06:20:08;;;;;;;63.10;56.30;;;;;;;10.12;100.00;98384.48;109574;1250;66804;-77
2023/03/23 06:22:39;;;;;;;61.30;54.90;;;;;;;10.40;100.00;98382.44;109630;1250;61160;-77
2023/03/23 06:25:07;;;;;;;58.00;51.90;;;;;;;10.69;100.00;98378.06;109606;1251;65101;-77
2023/03/23 06:27:35;;;;;;;49.00;43.90;;;;;;;10.97;100.00;98375.58;109478;1251;59838;-77
2023/03/23 06:30:03;;;;;;;54.50;48.40;;;;;;;11.23;100.00;98382.79;109618;1252;59735;-78
2023/03/23 06:32:31;;;;;;;48.20;43.20;;;;;;;11.43;100.00;98385.04;109571;1251;66751;-77
2023/03/23 06:34:58;;;;;;;41.10;36.90;;;;;;;11.60;100.00;98382.84;109655;1250;59859;-78
2023/03/23 06:37:25;;;;;;;39.60;35.60;;;;;;;11.83;100.00;98377.04;109615;1251;65272;-77
2023/03/23 06:39:51;;;;;;;37.50;33.60;;;;;;;12.10;100.00;98371.66;109590;1251;60390;-77
2023/03/23 06:42:18;;;;;;;35.60;32.10;;;;;;;12.35;100.00;98371.85;109646;1250;59762;-77
2023/03/23 06:44:45;;;;;;;31.40;28.10;;;;;;;12.59;100.00;98373.38;109532;1251;66952;-77
2023/03/23 06:47:12;;;;;;;27.90;25.00;;;;;;;12.79;100.00;98377.70;109648;1251;61071;-78
2023/03/23 06:49:39;;;;;;;27.80;24.90;;;;;;;12.95;100.00;98378.27;109602;1251;64790;-76
2023/03/23 06:52:06;;;;;;;27.10;23.70;;;;;;;13.09;100.00;98377.12;109585;1251;59761;-76
2023/03/23 06:54:33;;;;;;;28.40;25.30;;;;;;;13.21;100.00;98376.39;109659;1254;59695;-76
2023/03/23 06:57:00;;;;;;;27.90;24.80;;;;;;;13.33;100.00;98379.45;109603;1251;67568;-77
2023/03/23 06:59:26;;;;;;;27.00;22.70;;;;;;;13.45;100.00;98379.88;109579;1251;60201;-77
2023/03/23 07:01:53;;;;;;;25.10;21.70;;;;;;;13.53;100.00;98373.40;109644;1250;65558;-77
2023/03/23 07:04:20;;;;;;;24.60;21.20;;;;;;;13.62;100.00;98371.04;109667;1251;59773;-78
2023/03/23 07:06:47;;;;;;;21.60;19.20;;;;;;;13.71;100.00;98370.27;109677;1251;59770;-77
2023/03/23 07:09:13;;;;;;;20.60;16.10;;;;;;;13.80;100.00;98372.11;109717;1251;67551;-77
2023/03/23 07:11:41;;;;;;;15.60;13.40;;;;;;;13.88;100.00;98373.28;109433;1250;59768;-77
2023/03/23 07:14:08;;;;;;;17.20;13.20;;;;;;;13.98;100.00;98373.52;109616;1251;64841;-77
2023/03/23 07:16:34;;;;;;;13.40;11.00;;;;;;;14.07;100.00;98369.30;109577;1251;59828;-77
2023/03/23 07:19:01;;;;;;;12.50;10.50;;;;;;;14.16;100.00;98370.58;109697;1250;59822;-77
2023/03/23 07:21:27;;;;;;;11.00;9.40;;;;;;;14.25;100.00;98370.63;109642;1251;67707;-78
2023/03/23 07:23:54;;;;;;;12.20;9.60;;;;;;;14.35;100.00;98373.30;109638;1251;61535;-78
2023/03/23 07:26:21;;;;;;;8.70;7.80;;;;;;;14.44;100.00;98374.79;109636;1251;64983;-77
2023/03/23 07:28:48;;;;;;;12.20;9.50;;;;;;;14.53;100.00;98374.92;109363;1251;59888;-77
2023/03/23 07:31:14;;;;;;;11.60;9.80;;;;;;;14.63;100.00;98383.45;109661;1250;59796;-77
2023/03/23 07:33:41;;;;;;;11.00;8.50;;;;;;;14.72;100.00;98378.83;109579;1251;68047;-77
2023/03/23 07:36:08;;;;;;;10.20;8.80;;;;;;;14.80;100.00;98375.45;109421;1251;59803;-77
2023/03/23 07:38:35;;;;;;;13.50;8.30;;;;;;;14.86;100.00;98373.17;109638;1250;65007;-77
2023/03/23 07:41:02;;;;;;;12.10;7.90;;;;;;;14.91;100.00;98370.02;109648;1250;59741;-77
2023/03/23 07:43:29;;;;;;;11.40;7.00;;;;;;;14.96;100.00;98364.12;109646;1251;59773;-78
2023/03/23 07:45:56;;;;;;;7.40;6.70;;;;;;;14.99;100.00;98361.50;109496;1250;67499;-81
2023/03/23 07:48:23;;;;;;;7.00;6.20;;;;;;;15.02;100.00;98364.23;109628;1251;60753;-81
2023/03/23 07:50:49;;;;;;;8.10;6.50;;;;;;;15.05;100.00;98370.17;109599;1251;64820;-82
2023/03/23 07:53:16;;;;;;;10.20;6.40;;;;;;;15.09;100.00;98374.66;109572;1251;60122;-82
2023/03/23 07:55:43;;;;;;;6.40;5.80;;;;;;;15.13;100.00;98378.55;109578;1251;60208;-76
2023/03/23 07:58:09;;;;;;;9.00;6.90;;;;;;;15.18;100.00;98383.38;109317;1250;68288;-82
2023/03/23 08:00:36;;;;;;;7.90;6.70;;;;;;;15.26;100.00;98382.98;109626;1250;60282;-87
2023/03/23 08:03:05;;;;;;;7.50;6.00;;;;;;;15.35;100.00;98382.29;109575;1250;64742;-86
2023/03/23 08:05:33;;;;;;;8.90;6.40;;;;;;;15.42;100.00;98386.45;109561;1250;59791;-82
2023/03/23 08:08:09;;;;;;;8.80;6.70;;;;;;;15.55;100.00;98386.68;109557;1251;59912;-83
2023/03/23 08:10:36;;;;;;;10.30;7.10;;;;;;;15.71;100.00;98384.81;109555;1254;66790;-87
2023/03/23 08:13:03;;;;;;;10.60;8.10;;;;;;;15.83;99.05;98385.77;109611;1250;61259;-77
2023/03/23 08:15:29;;;;;;;9.80;6.80;;;;;;;15.93;97.19;98382.44;109582;1251;65279;-80
2023/03/23 08:17:58;;;;;;;8.50;6.40;;;;;;;15.99;95.06;98381.31;109540;1250;59839;-80
2023/03/23 08:20:25;;;;;;;8.50;6.30;;;;;;;16.05;94.63;98386.77;109540;1251;59819;-80
2023/03/23 08:22:55;;;;;;;7.60;5.60;;;;;;;16.15;93.61;98385.83;109637;1251;67824;-80
2023/03/23 08:25:24;;;;;;;8.80;5.90;;;;;;;16.27;92.89;98387.17;109637;1251;61161;-80
2023/03/23 08:27:51;;;;;;;8.60;5.80;;;;;;;16.33;91.94;98389.93;109620;1250;64760;-80
2023/03/23 08:30:21;;;;;;;6.40;5.50;;;;;;;16.38;90.25;98390.83;109613;1251;59799;-80
2023/03/23 08:32:49;;;;;;;8.20;5.30;;;;;;;16.37;89.36;98389.88;109590;1251;59601;-80
2023/03/23 08:35:17;;;;;;;8.50;5.50;;;;;;;16.37;89.24;98387.04;109669;1250;68072;-80
2023/03/23 08:37:45;;;;;;;9.80;5.60;;;;;;;16.37;88.33;98385.46;109670;1250;59899;-80
2023/03/23 08:40:14;;;;;;;7.30;5.10;;;;;;;16.40;88.39;98384.52;109624;1251;64823;-80
2023/03/23 08:42:43;;;;;;;8.30;5.20;;;;;;;16.46;87.64;98383.60;109590;1251;59811;-81
2023/03/23 08:45:12;;;;;;;6.50;5.10;;;;;;;16.54;86.20;98385.82;109659;1251;59706;-80
2023/03/23 08:47:40;;;;;;;5.60;4.60;;;;;;;16.58;84.82;98384.47;109643;1251;66660;-80
2023/03/23 08:50:08;;;;;;;8.90;4.90;;;;;;;16.59;83.05;98384.45;109668;1250;61252;-81
2023/03/23 08:52:35;;;;;;;7.50;4.60;;;;;;;16.59;81.91;98380.14;109663;1250;64984;-81
2023/03/23 08:55:03;;;;;;;5.60;4.60;;;;;;;16.63;80.80;98378.11;109373;1254;59853;-80
2023/03/23 08:57:30;;;;;;;7.50;4.70;;;;;;;16.70;78.55;98377.46;109634;1250;59801;-80
2023/03/23 09:00:06;;;;;;;6.20;5.00;;;;;;;16.78;77.37;98372.10;109635;1251;66767;-78
2023/03/23 09:02:34;;;;;;;7.60;4.20;;;;;;;16.94;77.91;98376.98;109482;1251;59838;-81
2023/03/23 09:05:01;;;;;;;6.90;4.60;;;;;;;17.07;77.13;98378.05;109615;1250;65095;-81
2023/03/23 09:07:27;;;;;;;6.50;4.20;;;;;;;17.16;75.68;98374.52;109625;1250;59743;-79
2023/03/23 09:09:54;;;;;;;6.00;3.90;;;;;;;17.18;74.89;98373.92;109711;1250;59699;-79
2023/03/23 09:12:21;;;;;;;4.30;3.40;;;;;;;17.19;73.56;98374.95;109636;1251;67829;-79
2023/03/23 09:14:47;;;;;;;9.60;4.50;;;;;;;17.36;72.83;98371.67;109618;1250;59846;-79
2023/03/23 09:17:14;;;;;;;3.20;2.80;;;;;;;17.63;72.34;98368.63;109624;1250;63758;-79
2023/03/23 09:19:41;;;;;;;5.30;3.40;;;;;;;17.90;71.70;98365.77;109566;1250;59800;-79
2023/03/23 09:22:08;;;;;;;3.60;3.10;;;;;;;18.13;70.41;98366.36;109589;1250;59762;-79
2023/03/23 09:24:35;;;;;;;3.20;2.90;;;;;;;18.20;69.21;98362.70;109646;1251;67814;-80
2023/03/23 09:27:02;;;;;;;6.30;3.40;;;;;;;18.10;69.04;98364.73;109668;1250;59790;-80
2023/03/23 09:29:28;;;;;;;3.70;3.20;;;;;;;17.92;68.03;98369.04;109633;1251;63942;-80
2023/03/23 09:31:55;;;;;;;4.20;2.90;;;;;;;17.87;68.13;98368.41;109568;1250;59744;-80
2023/03/23 09:34:22;;;;;;;4.90;3.60;;;;;;;17.97;67.03;98376.74;109605;1250;59760;-79
2023/03/23 09:36:49;;;;;;;4.00;3.10;;;;;;;18.13;67.17;98380.04;109462;1250;67744;-80
2023/03/23 09:39:16;;;;;;;3.30;3.00;;;;;;;18.33;67.23;98374.45;109606;1250;61012;-79
2023/03/23 09:41:54;;;;;;;3.20;2.70;;;;;;;18.55;66.61;98374.75;109582;1251;64705;-77
2023/03/23 09:44:39;;;;;;;5.10;2.90;;;;;;;18.74;65.59;98369.94;109608;1251;59809;-80
2023/03/23 09:47:12;;;;;;;5.00;2.90;;;;;;;18.88;62.76;98363.77;109572;1251;59809;-79
2023/03/23 09:49:51;;;;;;;4.90;3.10;;;;;;;18.98;61.60;98362.59;109402;1250;67578;-79
2023/03/23 09:52:19;;;;;;;3.30;2.90;;;;;;;19.21;61.86;98363.32;109636;1250;60063;-79
2023/03/23 09:54:53;;;;;;;5.90;3.10;;;;;;;19.41;61.42;98359.65;109623;1250;64086;-80
2023/03/23 09:57:38;;;;;;;3.90;2.90;;;;;;;19.56;60.89;98357.89;109645;1250;59874;-80
2023/03/23 10:00:18;;;;;;;5.90;3.40;;;;;;;19.71;60.11;98352.71;109599;1250;59836;-80
2023/03/23 10:03:12;;;;;;;3.50;2.70;;;;;;;19.80;59.00;98348.02;109653;1251;67833;-78
2023/03/23 10:05:47;;;;;;;5.30;3.20;;;;;;;19.83;58.34;98350.66;108972;1257;60081;-78
2023/03/23 10:08:26;;;;;;;5.30;3.20;;;;;;;19.87;57.07;98353.98;109013;1257;65422;-78
2023/03/23 10:10:58;;;;;;;7.70;4.00;;;;;;;19.84;54.07;98347.35;108968;1257;60111;-79
2023/03/23 10:13:48;;;;;;;3.70;3.30;;;;;;;19.75;53.23;98352.42;108985;1257;60093;-79
2023/03/23 10:16:36;;;;;;;5.20;2.90;;;;;;;19.75;53.80;98347.46;108631;1262;67010;-79
2023/03/23 10:19:20;;;;;;;4.70;3.50;;;;;;;19.80;52.75;98341.54;108764;1262;61108;-78
2023/03/23 10:21:52;;;;;;;5.30;3.50;;;;;;;19.80;51.82;98330.09;108766;1262;65028;-79
2023/03/23 10:24:30;;;;;;;4.40;3.40;;;;;;;19.84;53.16;98330.38;108754;1264;59847;-81
2023/03/23 10:27:00;;;;;;;7.50;3.50;;;;;;;19.92;52.99;98321.30;108681;1263;59895;-80
2023/03/23 10:29:34;;;;;;;5.50;3.70;;;;;;;20.05;54.05;98317.22;108773;1262;67992;-79
2023/03/23 10:32:17;;;;;;;6.00;3.30;;;;;;;20.15;52.45;98314.98;108762;1262;60755;-78
2023/03/23 10:34:47;;;;;;;4.10;3.30;;;;;;;20.16;51.62;98317.92;108740;1263;64013;-79
2023/03/23 10:37:17;;;;;;;;;;;;;;;20.17;51.31;98323.23;108745;1263;59841;-79
2023/03/23 10:39:47;;;;;;;4.30;3.30;;;;;;;20.22;51.88;98322.30;108775;1262;59767;-80
2023/03/23 10:42:22;;;;;;;4.20;3.20;;;;;;;20.29;51.90;98321.27;108838;1259;66928;-78
2023/03/23 10:44:49;;;;;;;5.60;3.50;;;;;;;20.32;51.35;98323.95;108853;1259;60155;-77
2023/03/23 10:47:17;;;;;;;4.30;3.00;;;;;;;20.32;50.13;98322.41;109007;1258;64018;-78
2023/03/23 10:49:50;;;;;;;5.00;3.50;;;;;;;20.35;49.63;98324.17;109030;1258;59775;-79
2023/03/23 10:52:34;;;;;;;6.30;3.30;;;;;;;20.42;48.42;98328.58;108883;1258;151556;-81
2023/03/23 10:55:10;;;;;;;4.40;3.40;;;;;;;20.46;46.77;98331.76;109672;1250;66917;-78
2023/03/23 10:57:40;;;;;;;5.90;3.80;;;;;;;20.51;46.04;98321.27;109626;1250;59866;-77
2023/03/23 11:00:16;;;;;;;5.10;3.80;;;;;;;20.61;46.06;98318.13;109590;1250;65038;-78
2023/03/23 11:03:06;;;;;;;6.20;4.30;;;;;;;20.78;46.15;98315.65;109549;1250;59722;-81
2023/03/23 11:05:56;;;;;;;4.80;3.50;;;;;;;20.88;44.67;98319.85;109669;1250;59631;-80
2023/03/23 11:08:30;;;;;;;5.20;3.80;;;;;;;20.72;45.22;98316.23;109620;1250;66855;-79
2023/03/23 11:11:20;;;;;;;5.10;3.60;;;;;;;20.55;45.57;98316.20;109641;1250;60751;-81
2023/03/23 11:13:51;;;;;;;4.40;3.40;;;;;;;20.35;45.70;98314.09;109633;1250;63775;-79
2023/03/23 11:16:33;;;;;;;5.10;3.40;;;;;;;20.18;45.99;98312.50;109657;1250;59778;-77
2023/03/23 11:19:13;;;;;;;6.00;2.90;;;;;;;19.99;45.04;98318.81;109591;1252;59696;-79
2023/03/23 11:21:47;;;;;;;4.60;3.30;;;;;;;19.80;46.19;98319.86;109580;1250;68269;-79
2023/03/23 11:24:14;;;;;;;5.90;4.10;;;;;;;19.62;45.95;98322.27;109633;1250;61262;-79
2023/03/23 11:26:44;;;;;;;5.00;3.70;;;;;;;19.54;45.26;98317.86;109587;1250;65190;-80